Time;durP1;ratioP1;P1;durP2;ratioP2;P2;SDS_P1;SDS_P2;PMS_P1;PMS_P2;Temp;Humidity;BMP_temperature;BMP_pressure;BME280_temperature;BME280_humidity;BME280_pressure;Samples;Min_cycle;Max_cycle;Signal;HPM_P1;HPM_P2
2021/08/29 00:01:25;;;;;;;11.38;5.25;;;14.70;99.90;;;;;;5031575;28;20029;-60
2021/08/29 00:03:51;;;;;;;10.93;5.30;;;14.70;99.90;;;;;;5040823;28;20384;-59
2021/08/29 00:06:16;;;;;;;11.73;4.40;;;14.80;99.90;;;;;;5037741;28;20036;-61
2021/08/29 00:08:42;;;;;;;11.18;5.30;;;14.70;99.90;;;;;;5041611;28;20535;-61
2021/08/29 00:11:08;;;;;;;12.55;5.28;;;14.70;99.90;;;;;;5039005;28;20091;-61
2021/08/29 00:13:34;;;;;;;10.20;4.90;;;14.70;99.90;;;;;;5042623;28;20419;-61
2021/08/29 00:16:00;;;;;;;14.18;5.70;;;14.70;99.90;;;;;;5035869;28;20033;-61
2021/08/29 00:18:26;;;;;;;11.60;4.70;;;14.60;99.90;;;;;;5036183;28;20050;-61
2021/08/29 00:20:51;;;;;;;10.25;4.68;;;14.60;99.90;;;;;;5043249;28;20056;-61
2021/08/29 00:23:17;;;;;;;10.35;4.93;;;14.60;99.90;;;;;;5041275;28;20118;-61
2021/08/29 00:25:43;;;;;;;11.25;5.15;;;14.60;99.90;;;;;;5042767;28;20466;-61
2021/08/29 00:28:09;;;;;;;12.27;4.93;;;14.60;99.90;;;;;;5036164;28;20022;-61
2021/08/29 00:30:34;;;;;;;11.77;5.00;;;14.60;99.90;;;;;;5045514;28;20420;-61
2021/08/29 00:33:00;;;;;;;13.07;5.40;;;14.60;99.90;;;;;;5044594;28;20063;-61
2021/08/29 00:35:25;;;;;;;9.25;4.40;;;14.60;99.90;;;;;;5043594;28;20358;-61
2021/08/29 00:37:51;;;;;;;11.98;4.93;;;14.60;99.90;;;;;;5045172;28;20029;-62
2021/08/29 00:40:20;;;;;;;12.80;5.72;;;14.60;99.90;;;;;;5045842;28;20111;-61
2021/08/29 00:42:46;;;;;;;12.02;5.03;;;14.60;99.90;;;;;;5044808;28;20025;-60
2021/08/29 00:45:12;;;;;;;10.90;5.22;;;14.50;99.90;;;;;;5044133;28;20025;-60
2021/08/29 00:47:38;;;;;;;12.73;5.03;;;14.50;99.90;;;;;;5045710;28;20449;-60
2021/08/29 00:50:05;;;;;;;14.48;4.55;;;14.50;99.90;;;;;;5046221;28;20037;-61
2021/08/29 00:52:39;;;;;;;15.90;5.28;;;14.50;99.90;;;;;;5041241;28;20400;-61
2021/08/29 00:55:09;;;;;;;13.80;5.50;;;14.50;99.90;;;;;;5037466;28;20033;-60
2021/08/29 00:57:34;;;;;;;10.25;5.35;;;14.60;99.90;;;;;;5043520;28;20021;-60
2021/08/29 01:00:00;;;;;;;11.48;5.07;;;14.50;99.90;;;;;;5045743;28;20537;-61
2021/08/29 01:02:27;;;;;;;10.93;5.03;;;14.60;99.90;;;;;;5034974;28;20087;-61
2021/08/29 01:05:12;;;;;;;10.48;4.05;;;14.60;99.90;;;;;;5040595;28;20061;-61
2021/08/29 01:07:59;;;;;;;14.75;5.10;;;14.60;99.90;;;;;;5044186;28;20025;-61
2021/08/29 01:10:53;;;;;;;11.80;5.60;;;14.60;99.90;;;;;;5039502;28;20021;-61
2021/08/29 01:13:25;;;;;;;10.43;3.78;;;14.40;99.90;;;;;;5041442;28;20076;-61
2021/08/29 01:15:53;;;;;;;12.52;5.22;;;14.50;99.90;;;;;;5046141;28;20060;-60
2021/08/29 01:18:20;;;;;;;14.38;5.38;;;14.50;99.90;;;;;;5041754;28;20071;-61
2021/08/29 01:21:11;;;;;;;11.52;4.93;;;14.50;99.90;;;;;;5039413;28;20040;-61
2021/08/29 01:23:39;;;;;;;11.10;5.60;;;14.60;99.90;;;;;;5043627;28;20433;-60
2021/08/29 01:26:39;;;;;;;13.10;5.10;;;14.50;99.90;;;;;;5042878;28;20040;-60
2021/08/29 01:29:06;;;;;;;11.07;4.30;;;14.60;99.90;;;;;;5039732;28;20021;-60
2021/08/29 01:31:35;;;;;;;17.45;5.20;;;14.60;99.90;;;;;;5047122;28;20455;-61
2021/08/29 01:34:07;;;;;;;11.93;5.22;;;14.60;99.90;;;;;;5045562;28;20546;-61
2021/08/29 01:36:36;;;;;;;14.07;4.97;;;14.60;99.90;;;;;;5046672;28;20033;-61
2021/08/29 01:39:04;;;;;;;12.88;5.03;;;14.60;99.90;;;;;;5045751;28;20453;-61
2021/08/29 01:41:32;;;;;;;13.60;5.43;;;14.60;99.90;;;;;;5044951;28;20017;-60
2021/08/29 01:43:59;;;;;;;12.25;5.53;;;14.50;99.90;;;;;;5039716;28;20036;-61
2021/08/29 01:46:25;;;;;;;12.57;5.18;;;14.60;99.90;;;;;;5039445;28;20377;-60
2021/08/29 01:48:51;;;;;;;10.25;4.22;;;14.60;99.90;;;;;;5043128;28;20025;-61
2021/08/29 01:51:17;;;;;;;11.18;4.35;;;14.60;99.90;;;;;;5045828;28;20025;-61
2021/08/29 01:53:44;;;;;;;11.82;4.30;;;14.50;99.90;;;;;;5045139;28;20040;-61
2021/08/29 01:56:10;;;;;;;12.50;5.07;;;14.50;99.90;;;;;;5040383;28;20029;-61
2021/08/29 01:58:36;;;;;;;9.40;4.65;;;14.50;99.90;;;;;;5050217;28;20024;-61
2021/08/29 02:01:08;;;;;;;14.30;4.68;;;14.50;99.90;;;;;;5040958;28;20469;-61
2021/08/29 02:03:34;;;;;;;12.70;5.18;;;14.60;99.90;;;;;;5048787;28;20083;-61
2021/08/29 02:06:18;;;;;;;15.68;5.88;;;14.50;99.90;;;;;;5045717;28;20025;-61
2021/08/29 02:08:54;;;;;;;11.07;4.15;;;14.60;99.90;;;;;;5046439;28;20028;-61
2021/08/29 02:11:21;;;;;;;15.38;5.65;;;14.60;99.90;;;;;;5047682;28;20385;-61
2021/08/29 02:13:53;;;;;;;12.68;5.50;;;14.60;99.90;;;;;;5049142;28;20040;-60
2021/08/29 02:16:21;;;;;;;14.73;6.07;;;14.60;99.90;;;;;;5039699;28;20033;-61
2021/08/29 02:18:51;;;;;;;12.32;5.75;;;14.60;99.90;;;;;;5045873;28;20083;-61
2021/08/29 02:21:17;;;;;;;;;;;14.60;99.90;;;;;;5049076;28;20075;-61
2021/08/29 02:23:45;;;;;;;12.38;5.07;;;14.60;99.90;;;;;;5048405;28;19909;-61
2021/08/29 02:26:11;;;;;;;14.20;5.55;;;14.50;99.90;;;;;;5046134;28;20025;-60
2021/08/29 02:28:37;;;;;;;15.27;5.38;;;14.60;99.90;;;;;;5041649;28;20021;-61
2021/08/29 02:31:03;;;;;;;13.52;4.55;;;14.60;99.90;;;;;;5047272;28;20033;-60
2021/08/29 02:33:29;;;;;;;13.63;5.82;;;14.60;99.90;;;;;;5048765;28;20025;-61
2021/08/29 02:35:57;;;;;;;13.45;4.65;;;14.60;99.90;;;;;;5048903;28;20017;-61
2021/08/29 02:38:23;;;;;;;12.40;5.22;;;14.60;99.90;;;;;;5040059;28;20402;-61
2021/08/29 02:40:50;;;;;;;13.55;5.63;;;14.50;99.90;;;;;;5048149;28;20021;-61
2021/08/29 02:43:18;;;;;;;12.52;5.60;;;14.60;99.90;;;;;;5048551;28;20021;-61
2021/08/29 02:45:44;;;;;;;11.38;3.88;;;14.60;99.90;;;;;;5046413;28;20029;-61
2021/08/29 02:48:10;;;;;;;13.13;5.05;;;14.60;99.90;;;;;;5047713;28;20044;-61
2021/08/29 02:50:36;;;;;;;17.73;5.85;;;14.60;99.90;;;;;;5048880;28;20029;-61
2021/08/29 02:53:02;;;;;;;10.63;5.30;;;14.60;99.90;;;;;;5039452;28;20021;-61
2021/08/29 02:55:29;;;;;;;15.30;4.78;;;14.60;99.90;;;;;;5048121;28;20037;-61
2021/08/29 02:58:01;;;;;;;16.05;6.07;;;14.60;99.90;;;;;;5047705;28;20113;-62
2021/08/29 03:00:27;;;;;;;15.18;6.28;;;14.50;99.90;;;;;;5048248;28;20104;-61
2021/08/29 03:02:54;;;;;;;12.70;5.18;;;14.50;99.90;;;;;;5041163;28;20499;-60
2021/08/29 03:05:20;;;;;;;13.82;5.90;;;14.60;99.90;;;;;;5048211;28;20024;-61
2021/08/29 03:07:45;;;;;;;15.30;5.55;;;14.50;99.90;;;;;;5047119;28;20489;-61
2021/08/29 03:10:12;;;;;;;13.80;5.32;;;14.60;99.90;;;;;;5044712;28;20024;-61
2021/08/29 03:12:39;;;;;;;12.13;5.80;;;14.60;99.90;;;;;;5047687;28;20029;-61
2021/08/29 03:15:06;;;;;;;13.23;5.68;;;14.60;99.90;;;;;;5046863;28;20025;-61
2021/08/29 03:17:32;;;;;;;13.30;5.57;;;14.70;99.90;;;;;;5047382;28;20135;-61
2021/08/29 03:20:00;;;;;;;15.23;7.03;;;14.70;99.90;;;;;;5047622;28;20119;-61
2021/08/29 03:22:26;;;;;;;19.92;6.97;;;14.70;99.90;;;;;;5048172;28;20021;-61
2021/08/29 03:24:52;;;;;;;17.73;6.13;;;14.70;99.90;;;;;;5048202;28;20028;-61
2021/08/29 03:27:18;;;;;;;14.57;5.95;;;14.60;99.90;;;;;;5047644;28;20025;-60
2021/08/29 03:29:44;;;;;;;14.38;5.20;;;14.70;99.90;;;;;;5044988;28;20056;-61
2021/08/29 03:32:10;;;;;;;22.45;6.85;;;14.70;99.90;;;;;;5045905;28;20053;-61
2021/08/29 03:34:36;;;;;;;16.33;7.22;;;14.60;99.90;;;;;;5047896;28;20028;-61
2021/08/29 03:37:05;;;;;;;16.45;6.18;;;14.70;99.90;;;;;;5044696;28;20083;-61
2021/08/29 03:39:32;;;;;;;13.35;6.38;;;14.70;99.90;;;;;;5045700;28;20035;-60
2021/08/29 03:41:58;;;;;;;15.57;6.50;;;14.60;99.90;;;;;;5048138;28;20381;-61
2021/08/29 03:44:25;;;;;;;15.88;6.72;;;14.70;99.90;;;;;;5046251;28;20099;-61
2021/08/29 03:46:52;;;;;;;17.45;7.05;;;14.60;99.90;;;;;;5047990;28;20477;-61
2021/08/29 03:49:18;;;;;;;18.00;6.35;;;14.60;99.90;;;;;;5046659;28;20109;-61
2021/08/29 03:51:45;;;;;;;17.80;6.78;;;14.70;99.90;;;;;;5046945;28;20025;-61
2021/08/29 03:54:13;;;;;;;16.08;6.72;;;14.60;99.90;;;;;;5045743;28;20031;-61
2021/08/29 03:56:39;;;;;;;17.48;6.13;;;14.60;99.90;;;;;;5047384;28;20083;-61
2021/08/29 03:59:05;;;;;;;19.83;7.45;;;14.70;99.90;;;;;;5045526;28;20054;-61
2021/08/29 04:01:31;;;;;;;15.23;7.05;;;14.60;99.90;;;;;;5047971;28;20514;-61
2021/08/29 04:03:56;;;;;;;14.48;6.28;;;14.60;99.90;;;;;;5048176;28;20087;-61
2021/08/29 04:06:24;;;;;;;21.27;7.72;;;14.60;99.90;;;;;;5041492;28;20028;-61
2021/08/29 04:08:53;;;;;;;15.15;5.35;;;14.60;99.90;;;;;;5046147;28;20473;-61
2021/08/29 04:11:30;;;;;;;26.92;8.27;;;14.60;99.90;;;;;;5045206;28;20025;-61
2021/08/29 04:13:56;;;;;;;16.45;8.02;;;14.60;99.90;;;;;;5046916;28;20017;-61
2021/08/29 04:16:23;;;;;;;20.05;5.85;;;14.60;99.90;;;;;;5046223;28;20017;-61
2021/08/29 04:18:49;;;;;;;21.27;7.00;;;14.60;99.90;;;;;;5047649;28;20377;-60
2021/08/29 04:21:19;;;;;;;14.60;5.95;;;14.50;99.90;;;;;;5044798;28;20055;-60
2021/08/29 04:23:45;;;;;;;22.40;7.38;;;14.50;99.90;;;;;;5047644;28;20025;-60
2021/08/29 04:26:11;;;;;;;15.80;6.53;;;14.60;99.90;;;;;;5045797;28;20422;-60
2021/08/29 04:28:38;;;;;;;18.63;7.65;;;14.50;99.90;;;;;;5047076;28;20377;-61
2021/08/29 04:31:17;;;;;;;19.75;6.57;;;14.50;99.90;;;;;;5045329;28;20036;-61
2021/08/29 04:33:44;;;;;;;23.23;8.27;;;14.50;99.90;;;;;;5041388;28;20466;-61
2021/08/29 04:36:09;;;;;;;20.20;7.93;;;14.50;99.90;;;;;;5045010;28;20268;-60
2021/08/29 04:38:38;;;;;;;21.98;7.53;;;14.50;99.90;;;;;;5046628;28;20036;-61
2021/08/29 04:41:05;;;;;;;15.82;7.13;;;14.50;99.90;;;;;;5040390;28;20075;-60
2021/08/29 04:43:30;;;;;;;22.83;7.60;;;14.50;99.90;;;;;;5047145;28;20033;-61
2021/08/29 04:45:56;;;;;;;19.95;7.53;;;14.50;99.90;;;;;;5039122;28;20468;-60
2021/08/29 04:48:22;;;;;;;18.00;6.68;;;14.60;99.90;;;;;;5046461;28;20337;-61
2021/08/29 04:50:47;;;;;;;16.30;7.15;;;14.50;99.90;;;;;;5045966;28;20520;-60
2021/08/29 04:53:13;;;;;;;16.90;6.53;;;14.50;99.90;;;;;;5045864;28;20104;-61
2021/08/29 04:55:39;;;;;;;20.52;6.47;;;14.50;99.90;;;;;;5042755;28;20369;-61
2021/08/29 04:58:04;;;;;;;15.90;7.18;;;14.60;99.90;;;;;;5038276;28;20083;-61
2021/08/29 05:00:30;;;;;;;21.08;7.35;;;14.60;99.90;;;;;;5043592;28;20033;-61
2021/08/29 05:02:55;;;;;;;18.95;6.50;;;14.50;99.90;;;;;;5040079;28;20017;-60
2021/08/29 05:05:21;;;;;;;20.80;7.43;;;14.50;99.90;;;;;;5045650;28;20013;-61
2021/08/29 05:07:46;;;;;;;21.38;7.32;;;14.50;99.90;;;;;;5044998;28;20373;-61
2021/08/29 05:10:12;;;;;;;17.75;6.40;;;14.50;99.90;;;;;;5044670;28;20021;-61
2021/08/29 05:12:38;;;;;;;16.92;6.30;;;14.50;99.90;;;;;;5046267;28;20090;-61
2021/08/29 05:15:04;;;;;;;20.40;8.43;;;14.50;99.90;;;;;;5036741;28;20103;-61
2021/08/29 05:17:30;;;;;;;18.52;7.25;;;14.40;99.90;;;;;;5041637;28;20053;-60
2021/08/29 05:19:56;;;;;;;22.98;7.45;;;14.50;99.90;;;;;;5044974;28;20025;-61
2021/08/29 05:22:21;;;;;;;19.95;7.82;;;14.50;99.90;;;;;;5040698;28;20032;-61
2021/08/29 05:24:47;;;;;;;18.17;6.78;;;14.40;99.90;;;;;;5046472;28;20032;-60
2021/08/29 05:27:12;;;;;;;18.23;7.28;;;14.50;99.90;;;;;;5045440;28;20356;-61
2021/08/29 05:29:38;;;;;;;15.68;5.90;;;14.50;99.90;;;;;;5044795;28;20083;-61
2021/08/29 05:32:04;;;;;;;15.18;5.63;;;14.50;99.90;;;;;;5041746;28;20025;-61
2021/08/29 05:34:30;;;;;;;16.85;6.22;;;14.50;99.90;;;;;;5044595;28;20040;-61
2021/08/29 05:36:55;;;;;;;21.92;6.93;;;14.50;99.90;;;;;;5045627;28;20021;-61
2021/08/29 05:39:21;;;;;;;20.50;6.55;;;14.60;99.90;;;;;;5045790;28;20104;-61
2021/08/29 05:41:47;;;;;;;20.08;6.97;;;14.60;99.90;;;;;;5045843;28;20021;-61
2021/08/29 05:44:12;;;;;;;20.13;7.03;;;14.60;99.90;;;;;;5034045;28;20036;-61
2021/08/29 05:46:38;;;;;;;21.30;6.80;;;14.70;99.90;;;;;;5044943;28;20029;-61
2021/08/29 05:49:04;;;;;;;18.50;7.47;;;14.60;99.90;;;;;;5043833;28;20481;-60
2021/08/29 05:51:29;;;;;;;24.92;6.78;;;14.60;99.90;;;;;;5039220;28;20017;-61
2021/08/29 05:53:55;;;;;;;15.25;5.65;;;14.60;99.90;;;;;;5039676;28;20107;-60
2021/08/29 05:56:20;;;;;;;13.90;5.57;;;14.70;99.90;;;;;;5039597;28;20079;-60
2021/08/29 05:58:46;;;;;;;17.15;7.10;;;14.60;99.90;;;;;;5045151;28;20021;-60
2021/08/29 06:01:13;;;;;;;21.20;8.23;;;14.60;99.90;;;;;;5045265;28;20159;-60
2021/08/29 06:03:39;;;;;;;18.92;7.95;;;14.50;99.90;;;;;;5037667;28;20025;-60
2021/08/29 06:06:04;;;;;;;22.95;7.78;;;14.50;99.90;;;;;;5038795;28;20028;-61
2021/08/29 06:08:30;;;;;;;12.85;5.47;;;14.50;99.90;;;;;;5041384;28;20025;-60
2021/08/29 06:10:57;;;;;;;18.77;8.35;;;14.50;99.90;;;;;;5044779;28;20055;-60
2021/08/29 06:13:22;;;;;;;18.50;7.38;;;14.50;99.90;;;;;;5044270;28;20029;-60
2021/08/29 06:15:48;;;;;;;18.52;7.95;;;14.50;99.90;;;;;;5046099;28;20029;-60
2021/08/29 06:18:14;;;;;;;19.73;7.78;;;14.50;99.90;;;;;;5036638;28;20044;-60
2021/08/29 06:20:39;;;;;;;17.63;6.30;;;14.60;99.90;;;;;;5049114;28;20057;-60
2021/08/29 06:23:05;;;;;;;17.20;7.45;;;14.60;99.90;;;;;;5041260;28;20033;-60
2021/08/29 06:25:31;;;;;;;22.20;7.57;;;14.50;99.90;;;;;;5046205;28;20029;-60
2021/08/29 06:27:56;;;;;;;22.13;6.93;;;14.50;99.90;;;;;;5043560;28;20029;-60
2021/08/29 06:30:22;;;;;;;20.48;7.10;;;14.50;99.90;;;;;;5040775;28;20377;-60
2021/08/29 06:32:47;;;;;;;12.90;6.57;;;14.60;99.90;;;;;;5046388;28;20043;-60
2021/08/29 06:35:13;;;;;;;17.95;7.13;;;14.60;99.90;;;;;;5046120;28;20036;-60
2021/08/29 06:37:38;;;;;;;17.10;7.30;;;14.60;99.90;;;;;;5045315;28;20872;-60
2021/08/29 06:40:05;;;;;;;19.30;6.68;;;14.60;99.90;;;;;;5045533;28;20113;-60
2021/08/29 06:42:30;;;;;;;20.13;5.65;;;14.50;99.90;;;;;;5046027;28;20075;-60
2021/08/29 06:44:56;;;;;;;23.30;8.25;;;14.50;99.90;;;;;;5046479;28;20118;-60
2021/08/29 06:47:21;;;;;;;21.55;7.55;;;14.60;99.90;;;;;;5044771;28;20025;-60
2021/08/29 06:49:47;;;;;;;20.52;7.60;;;14.50;99.90;;;;;;5046377;28;20032;-60
2021/08/29 06:52:13;;;;;;;18.05;6.63;;;14.50;99.90;;;;;;5044915;28;20033;-60
2021/08/29 06:54:38;;;;;;;16.80;7.07;;;14.60;99.90;;;;;;5045748;28;20037;-60
2021/08/29 06:57:04;;;;;;;17.65;6.60;;;14.50;99.90;;;;;;5037981;28;20104;-60
2021/08/29 06:59:30;;;;;;;19.90;7.32;;;14.60;99.90;;;;;;5042884;28;20122;-60
2021/08/29 07:01:56;;;;;;;23.52;7.93;;;14.60;99.90;;;;;;5044609;28;20029;-60
2021/08/29 07:04:21;;;;;;;13.52;5.65;;;14.60;99.90;;;;;;5037543;28;20391;-60
2021/08/29 07:06:47;;;;;;;16.80;7.63;;;14.60;99.90;;;;;;5045150;28;20027;-60
2021/08/29 07:09:12;;;;;;;15.77;5.20;;;14.60;99.90;;;;;;5038557;28;20025;-60
2021/08/29 07:11:38;;;;;;;22.73;7.13;;;14.50;99.90;;;;;;5045197;28;20391;-60
2021/08/29 07:14:04;;;;;;;17.80;6.63;;;14.50;99.90;;;;;;5045639;28;20020;-60
2021/08/29 07:16:29;;;;;;;15.63;6.20;;;14.50;99.90;;;;;;5043472;28;20032;-60
2021/08/29 07:18:55;;;;;;;16.38;7.43;;;14.50;99.90;;;;;;5043865;28;20842;-60
2021/08/29 07:21:20;;;;;;;13.73;5.50;;;14.60;99.90;;;;;;5045185;28;20115;-60
2021/08/29 07:23:46;;;;;;;17.33;7.85;;;14.60;99.90;;;;;;5040972;28;20041;-60
2021/08/29 07:26:14;;;;;;;15.48;6.70;;;14.60;99.90;;;;;;5044382;28;20025;-60
2021/08/29 07:28:44;;;;;;;16.10;5.55;;;14.70;99.90;;;;;;5041322;28;20124;-60
2021/08/29 07:31:10;;;;;;;21.42;7.35;;;14.60;99.90;;;;;;5039199;28;20064;-60
2021/08/29 07:33:36;;;;;;;13.50;5.20;;;14.70;99.90;;;;;;5033062;28;20068;-60
2021/08/29 07:36:03;;;;;;;12.93;5.07;;;14.70;99.90;;;;;;5044677;28;20482;-60
2021/08/29 07:38:28;;;;;;;13.85;5.53;;;14.70;99.90;;;;;;5044159;28;20109;-60
2021/08/29 07:40:54;;;;;;;13.13;5.20;;;14.60;99.90;;;;;;5044482;28;20128;-60
2021/08/29 07:43:20;;;;;;;19.20;5.20;;;14.60;99.90;;;;;;5044536;28;20056;-60
2021/08/29 07:45:45;;;;;;;13.70;6.68;;;14.50;99.90;;;;;;5044124;28;20025;-60
2021/08/29 07:48:11;;;;;;;14.90;6.05;;;14.50;99.90;;;;;;5044453;28;20116;-60
2021/08/29 07:50:36;;;;;;;13.63;4.90;;;14.50;99.90;;;;;;5043916;28;20032;-60
2021/08/29 07:53:03;;;;;;;16.58;6.80;;;14.50;99.90;;;;;;5035719;28;20033;-59
2021/08/29 07:55:28;;;;;;;13.77;4.57;;;14.50;99.90;;;;;;5044420;28;20036;-59
2021/08/29 07:57:54;;;;;;;14.18;6.20;;;14.60;99.90;;;;;;5043972;28;20029;-59
2021/08/29 08:00:20;;;;;;;14.82;6.25;;;14.50;99.90;;;;;;5043862;28;20033;-60
2021/08/29 08:02:45;;;;;;;12.95;4.55;;;14.60;99.90;;;;;;5042625;28;20037;-59
2021/08/29 08:05:11;;;;;;;14.10;5.53;;;14.70;99.90;;;;;;5043926;28;20033;-60
2021/08/29 08:07:37;;;;;;;12.73;5.75;;;14.70;99.90;;;;;;5040921;28;20484;-59
2021/08/29 08:10:04;;;;;;;14.30;5.60;;;14.70;99.90;;;;;;5043152;28;20029;-59
2021/08/29 08:12:30;;;;;;;13.60;5.80;;;14.70;99.90;;;;;;5038205;28;20472;-59
2021/08/29 08:14:56;;;;;;;15.82;5.68;;;14.70;99.90;;;;;;5042367;28;20029;-60
2021/08/29 08:17:22;;;;;;;12.20;5.03;;;14.70;99.90;;;;;;5043299;28;20500;-59
2021/08/29 08:19:47;;;;;;;9.40;3.67;;;14.80;99.90;;;;;;5043521;28;20056;-60
2021/08/29 08:22:13;;;;;;;10.65;3.28;;;14.80;99.90;;;;;;5038224;28;20116;-60
2021/08/29 08:24:39;;;;;;;10.57;4.28;;;14.70;99.90;;;;;;5042809;28;20021;-60
2021/08/29 08:27:05;;;;;;;9.10;4.07;;;14.70;99.90;;;;;;5041865;28;20076;-60
2021/08/29 08:29:31;;;;;;;11.75;4.75;;;14.80;99.90;;;;;;5041005;28;20104;-59
2021/08/29 08:31:57;;;;;;;15.32;4.43;;;14.70;99.90;;;;;;5042740;28;20025;-60
2021/08/29 08:34:22;;;;;;;10.93;5.25;;;14.70;99.90;;;;;;5038959;28;20037;-59
2021/08/29 08:36:48;;;;;;;11.45;4.47;;;14.80;99.90;;;;;;5038681;28;20405;-60
2021/08/29 08:39:14;;;;;;;9.82;4.78;;;14.80;99.90;;;;;;5038320;28;20032;-60
2021/08/29 08:41:39;;;;;;;12.20;4.63;;;14.90;99.90;;;;;;5036937;28;20072;-60
2021/08/29 08:44:06;;;;;;;8.32;3.65;;;14.90;99.90;;;;;;5037170;28;20025;-59
2021/08/29 08:46:32;;;;;;;11.35;5.00;;;14.90;99.90;;;;;;5040861;28;20114;-59
2021/08/29 08:49:02;;;;;;;7.90;3.03;;;14.80;99.90;;;;;;5039179;28;20042;-60
2021/08/29 08:51:30;;;;;;;10.88;4.72;;;14.80;99.90;;;;;;5038412;28;20024;-60
2021/08/29 08:53:59;;;;;;;10.05;4.60;;;14.70;99.90;;;;;;5038321;28;20037;-59
2021/08/29 08:56:26;;;;;;;14.40;4.90;;;14.80;99.90;;;;;;5038409;28;20021;-60
2021/08/29 08:58:58;;;;;;;8.10;3.30;;;14.80;99.90;;;;;;5041457;28;20040;-59
2021/08/29 09:01:24;;;;;;;10.52;4.72;;;14.80;99.90;;;;;;5037131;28;20034;-59
2021/08/29 09:03:50;;;;;;;10.15;3.65;;;14.80;99.90;;;;;;5037154;28;20086;-59
2021/08/29 09:06:16;;;;;;;8.05;3.70;;;14.70;99.90;;;;;;5037810;28;20021;-60
2021/08/29 09:08:42;;;;;;;12.95;4.07;;;14.80;99.90;;;;;;5040434;28;20026;-59
2021/08/29 09:11:08;;;;;;;8.95;3.65;;;14.70;99.90;;;;;;5036248;28;20022;-61
2021/08/29 09:13:49;;;;;;;8.23;3.72;;;14.80;99.90;;;;;;5040277;28;20025;-59
2021/08/29 09:16:19;;;;;;;9.70;3.47;;;14.80;99.90;;;;;;5037009;28;20029;-59
2021/08/29 09:19:03;;;;;;;9.95;3.80;;;14.80;99.90;;;;;;5039551;28;20060;-60
2021/08/29 09:21:33;;;;;;;9.50;3.83;;;14.80;99.90;;;;;;5038288;28;20583;-60
2021/08/29 09:24:00;;;;;;;8.52;3.72;;;14.80;99.90;;;;;;5041309;28;20037;-60
2021/08/29 09:26:29;;;;;;;7.22;2.58;;;15.00;99.90;;;;;;5029608;28;21118;-60
2021/08/29 09:28:59;;;;;;;8.77;3.65;;;15.00;99.90;;;;;;5036009;28;20025;-60
2021/08/29 09:31:46;;;;;;;7.03;3.38;;;15.00;99.90;;;;;;5038259;28;20033;-60
2021/08/29 09:34:12;;;;;;;8.68;3.05;;;15.00;99.90;;;;;;5033690;28;20037;-59
2021/08/29 09:36:41;;;;;;;5.68;2.38;;;15.00;99.90;;;;;;5042543;28;20055;-59
2021/08/29 09:39:21;;;;;;;6.00;2.42;;;14.90;99.90;;;;;;5040118;28;20095;-60
2021/08/29 09:41:47;;;;;;;5.75;2.40;;;14.90;99.90;;;;;;5037067;28;20029;-59
2021/08/29 09:44:21;;;;;;;8.38;3.65;;;14.90;99.90;;;;;;5036625;28;20053;-59
2021/08/29 09:46:55;;;;;;;7.20;2.70;;;14.90;99.90;;;;;;5031320;28;20037;-59
2021/08/29 09:49:31;;;;;;;8.48;2.78;;;15.10;99.90;;;;;;5036979;28;20037;-59
2021/08/29 09:51:59;;;;;;;6.97;2.40;;;15.00;99.90;;;;;;5044152;28;20028;-60
2021/08/29 09:54:42;;;;;;;6.75;2.85;;;15.00;99.90;;;;;;5040611;28;20040;-60
2021/08/29 09:57:12;;;;;;;7.45;3.30;;;15.00;99.90;;;;;;5036193;28;20890;-60
2021/08/29 09:59:46;;;;;;;6.50;2.50;;;14.90;99.90;;;;;;5039008;28;20554;-60
2021/08/29 10:02:33;;;;;;;8.63;3.15;;;15.00;99.90;;;;;;5038521;28;20025;-59
2021/08/29 10:05:18;;;;;;;7.28;3.30;;;15.00;99.90;;;;;;5040968;28;20061;-60
2021/08/29 10:08:00;;;;;;;9.40;3.78;;;15.00;99.90;;;;;;5038877;28;20037;-60
2021/08/29 10:10:30;;;;;;;7.25;3.63;;;15.10;99.90;;;;;;5040179;28;20099;-59
2021/08/29 10:12:57;;;;;;;7.70;3.60;;;15.10;99.90;;;;;;5042207;28;20067;-60
2021/08/29 10:15:23;;;;;;;7.82;3.15;;;15.10;99.90;;;;;;5040074;28;20021;-58
2021/08/29 10:17:52;;;;;;;7.57;3.38;;;15.00;99.90;;;;;;5039603;28;20060;-59
2021/08/29 10:20:20;;;;;;;9.40;4.03;;;15.00;99.90;;;;;;5034124;28;20116;-60
2021/08/29 10:22:49;;;;;;;8.25;3.42;;;14.90;99.90;;;;;;5041759;28;20083;-60
2021/08/29 10:25:17;;;;;;;9.13;3.50;;;14.90;99.90;;;;;;5040635;28;20013;-59
2021/08/29 10:27:46;;;;;;;7.03;3.25;;;15.10;99.90;;;;;;5038233;28;20029;-59
2021/08/29 10:30:12;;;;;;;7.63;3.88;;;15.10;99.90;;;;;;5038444;28;20031;-60
2021/08/29 10:32:46;;;;;;;8.05;3.60;;;15.20;99.90;;;;;;5037066;28;20489;-60
2021/08/29 10:35:13;;;;;;;7.65;3.67;;;15.10;99.90;;;;;;5035754;28;20033;-59
2021/08/29 10:37:44;;;;;;;7.47;3.13;;;15.10;99.90;;;;;;5039733;28;20112;-60
2021/08/29 10:40:12;;;;;;;7.05;3.30;;;15.10;99.90;;;;;;5038919;28;20527;-60
2021/08/29 10:42:40;;;;;;;9.85;4.35;;;15.20;99.90;;;;;;5033953;28;20460;-60
2021/08/29 10:45:08;;;;;;;7.85;3.60;;;15.30;99.90;;;;;;5042195;28;20791;-60
2021/08/29 10:47:34;;;;;;;7.55;3.50;;;15.30;99.90;;;;;;5041610;28;20048;-61
2021/08/29 10:50:03;;;;;;;7.85;3.30;;;15.40;99.90;;;;;;5037421;28;20025;-60
2021/08/29 10:52:31;;;;;;;7.82;3.40;;;15.50;99.90;;;;;;5037870;28;20056;-60
2021/08/29 10:55:01;;;;;;;7.00;2.97;;;15.50;99.90;;;;;;5040358;28;20029;-60
2021/08/29 10:57:34;;;;;;;;;;;15.50;99.90;;;;;;5041836;28;20021;-60
2021/08/29 11:00:07;;;;;;;6.78;2.50;;;15.70;99.90;;;;;;5033791;28;19962;-60
2021/08/29 11:02:44;;;;;;;7.72;3.03;;;15.80;99.90;;;;;;5033270;28;20028;-60
2021/08/29 11:05:16;;;;;;;8.05;3.15;;;15.90;99.90;;;;;;5035212;28;20052;-60
2021/08/29 11:07:50;;;;;;;8.68;3.78;;;15.90;99.90;;;;;;5037836;28;20039;-59
2021/08/29 11:10:38;;;;;;;8.15;3.75;;;15.50;99.90;;;;;;5038419;28;20023;-60
2021/08/29 11:13:32;;;;;;;10.15;4.38;;;15.50;99.90;;;;;;5026705;28;20408;-60
2021/08/29 11:16:12;;;;;;;11.73;5.35;;;15.50;99.90;;;;;;5037697;28;20032;-61
2021/08/29 11:19:03;;;;;;;11.68;4.85;;;15.60;99.90;;;;;;5034142;28;20072;-60
2021/08/29 11:21:34;;;;;;;10.70;5.43;;;15.80;99.90;;;;;;5037586;28;20064;-61
2021/08/29 11:24:01;;;;;;;12.98;5.20;;;16.00;99.90;;;;;;5036575;28;20052;-60
2021/08/29 11:26:32;;;;;;;10.60;4.90;;;16.00;99.90;;;;;;5038727;28;20710;-60
2021/08/29 11:28:57;;;;;;;10.95;5.53;;;16.00;99.90;;;;;;5036426;28;20017;-60
2021/08/29 11:31:52;;;;;;;11.30;5.93;;;15.90;99.90;;;;;;5042855;28;20025;-60
2021/08/29 11:34:18;;;;;;;10.13;5.65;;;15.90;99.90;;;;;;5031200;28;20100;-60
2021/08/29 11:36:44;;;;;;;10.27;4.88;;;16.20;99.90;;;;;;5040019;28;20134;-59
2021/08/29 11:39:36;;;;;;;10.18;5.50;;;16.30;99.90;;;;;;5034070;28;20504;-60
2021/08/29 11:42:18;;;;;;;10.85;5.70;;;16.50;99.90;;;;;;5037927;28;20022;-60
2021/08/29 11:44:45;;;;;;;12.50;5.38;;;16.60;99.90;;;;;;5033155;28;20079;-60
2021/08/29 11:47:11;;;;;;;10.93;5.18;;;16.50;99.90;;;;;;5039385;28;20044;-60
2021/08/29 11:49:38;;;;;;;10.90;5.28;;;16.40;99.90;;;;;;5035629;28;20041;-61
2021/08/29 11:52:04;;;;;;;11.10;4.97;;;16.20;99.90;;;;;;5037346;28;20552;-60
2021/08/29 11:54:30;;;;;;;10.10;5.18;;;16.20;99.90;;;;;;5037998;28;20132;-60
2021/08/29 11:56:55;;;;;;;11.13;5.72;;;16.70;99.90;;;;;;5041902;28;20469;-60
2021/08/29 11:59:32;;;;;;;10.15;5.55;;;16.90;99.90;;;;;;5039283;28;20035;-61
2021/08/29 12:02:00;;;;;;;11.75;5.28;;;17.20;99.90;;;;;;5041390;28;20744;-60
2021/08/29 12:04:26;;;;;;;9.98;5.00;;;17.40;99.90;;;;;;5037494;28;20028;-60
2021/08/29 12:07:08;;;;;;;11.27;5.25;;;17.30;99.90;;;;;;5034257;28;20657;-61
2021/08/29 12:09:42;;;;;;;9.82;5.18;;;17.30;99.90;;;;;;5038796;28;20461;-61
2021/08/29 12:12:18;;;;;;;10.18;5.22;;;17.60;99.90;;;;;;5027116;28;20420;-60
2021/08/29 12:14:44;;;;;;;10.88;5.50;;;17.40;99.90;;;;;;5040960;28;20082;-60
2021/08/29 12:17:12;;;;;;;11.98;6.13;;;17.20;99.90;;;;;;5041328;28;21207;-60
2021/08/29 12:19:40;;;;;;;11.15;6.32;;;16.90;99.90;;;;;;5039317;28;20029;-60
2021/08/29 12:22:08;;;;;;;12.70;6.70;;;16.70;99.90;;;;;;5039940;28;20052;-61
2021/08/29 12:24:37;;;;;;;11.55;6.35;;;16.50;99.90;;;;;;5040784;28;20028;-61
2021/08/29 12:27:07;;;;;;;11.82;5.60;;;16.40;99.90;;;;;;5038012;28;20052;-61
2021/08/29 12:29:41;;;;;;;10.00;5.35;;;16.40;99.90;;;;;;5039153;28;20025;-61
2021/08/29 12:32:10;;;;;;;10.85;5.57;;;16.70;99.90;;;;;;5036622;28;20579;-61
2021/08/29 12:34:36;;;;;;;11.40;5.18;;;17.10;99.90;;;;;;5036310;28;20024;-61
2021/08/29 12:37:08;;;;;;;12.20;5.97;;;17.10;99.90;;;;;;5037527;28;20033;-60
2021/08/29 12:39:34;;;;;;;11.65;5.57;;;17.40;99.90;;;;;;5035698;28;20070;-60
2021/08/29 12:42:20;;;;;;;10.50;5.20;;;17.60;99.90;;;;;;5042115;28;20472;-60
2021/08/29 12:44:47;;;;;;;11.85;5.45;;;17.50;99.90;;;;;;5037338;28;20021;-61